sensor_id;sensor_type;location;lat;lon;timestamp;P1;durP1;ratioP1;P2;durP2;ratioP2
19301;SDS011;9785;59.362;12.152;2023-04-03T00:02:14;3.53;;;1.07;;
19301;SDS011;9785;59.362;12.152;2023-04-03T00:04:44;0.80;;;0.70;;
19301;SDS011;9785;59.362;12.152;2023-04-03T00:07:14;3.10;;;1.13;;
19301;SDS011;9785;59.362;12.152;2023-04-03T00:09:46;1.43;;;1.33;;
19301;SDS011;9785;59.362;12.152;2023-04-03T00:12:15;2.53;;;1.33;;
19301;SDS011;9785;59.362;12.152;2023-04-03T00:14:46;6.07;;;1.20;;
19301;SDS011;9785;59.362;12.152;2023-04-03T00:17:16;1.23;;;1.07;;
19301;SDS011;9785;59.362;12.152;2023-04-03T00:19:45;2.53;;;1.20;;
19301;SDS011;9785;59.362;12.152;2023-04-03T00:22:14;0.90;;;0.90;;
19301;SDS011;9785;59.362;12.152;2023-04-03T00:24:46;2.67;;;1.10;;
19301;SDS011;9785;59.362;12.152;2023-04-03T00:27:14;0.77;;;0.77;;
19301;SDS011;9785;59.362;12.152;2023-04-03T00:29:44;1.43;;;0.80;;
19301;SDS011;9785;59.362;12.152;2023-04-03T00:32:15;0.60;;;0.60;;
19301;SDS011;9785;59.362;12.152;2023-04-03T00:34:45;3.30;;;0.67;;
19301;SDS011;9785;59.362;12.152;2023-04-03T00:37:14;0.57;;;0.57;;
19301;SDS011;9785;59.362;12.152;2023-04-03T00:39:44;1.80;;;0.50;;
19301;SDS011;9785;59.362;12.152;2023-04-03T00:42:16;1.00;;;0.90;;
19301;SDS011;9785;59.362;12.152;2023-04-03T00:47:33;0.93;;;0.87;;
19301;SDS011;9785;59.362;12.152;2023-04-03T00:50:03;0.67;;;0.67;;
19301;SDS011;9785;59.362;12.152;2023-04-03T00:52:33;2.50;;;0.80;;
19301;SDS011;9785;59.362;12.152;2023-04-03T00:55:04;2.93;;;0.90;;
19301;SDS011;9785;59.362;12.152;2023-04-03T00:57:35;1.77;;;0.70;;
19301;SDS011;9785;59.362;12.152;2023-04-03T01:00:06;0.97;;;0.90;;
19301;SDS011;9785;59.362;12.152;2023-04-03T01:02:36;2.00;;;0.87;;
19301;SDS011;9785;59.362;12.152;2023-04-03T01:05:08;1.90;;;0.90;;
19301;SDS011;9785;59.362;12.152;2023-04-03T01:07:37;5.27;;;1.20;;
19301;SDS011;9785;59.362;12.152;2023-04-03T01:10:08;0.80;;;0.80;;
19301;SDS011;9785;59.362;12.152;2023-04-03T01:12:42;1.67;;;1.00;;
19301;SDS011;9785;59.362;12.152;2023-04-03T01:15:14;1.73;;;0.93;;
19301;SDS011;9785;59.362;12.152;2023-04-03T01:17:45;0.87;;;0.80;;
19301;SDS011;9785;59.362;12.152;2023-04-03T01:23:05;1.13;;;0.83;;
19301;SDS011;9785;59.362;12.152;2023-04-03T01:25:37;0.70;;;0.70;;
19301;SDS011;9785;59.362;12.152;2023-04-03T01:28:10;0.83;;;0.50;;
19301;SDS011;9785;59.362;12.152;2023-04-03T01:30:40;0.60;;;0.60;;
19301;SDS011;9785;59.362;12.152;2023-04-03T01:33:13;0.70;;;0.70;;
19301;SDS011;9785;59.362;12.152;2023-04-03T01:35:43;1.67;;;0.90;;
19301;SDS011;9785;59.362;12.152;2023-04-03T01:38:12;0.90;;;0.73;;
19301;SDS011;9785;59.362;12.152;2023-04-03T01:40:44;0.70;;;0.70;;
19301;SDS011;9785;59.362;12.152;2023-04-03T01:43:13;0.70;;;0.70;;
19301;SDS011;9785;59.362;12.152;2023-04-03T01:45:43;0.60;;;0.60;;
19301;SDS011;9785;59.362;12.152;2023-04-03T01:48:14;0.40;;;0.40;;
19301;SDS011;9785;59.362;12.152;2023-04-03T01:50:44;0.90;;;0.77;;
19301;SDS011;9785;59.362;12.152;2023-04-03T01:53:14;2.30;;;0.60;;
19301;SDS011;9785;59.362;12.152;2023-04-03T01:55:44;3.63;;;0.50;;
19301;SDS011;9785;59.362;12.152;2023-04-03T01:58:13;0.60;;;0.60;;
19301;SDS011;9785;59.362;12.152;2023-04-03T02:00:43;3.50;;;1.03;;
19301;SDS011;9785;59.362;12.152;2023-04-03T02:03:12;1.30;;;0.77;;
19301;SDS011;9785;59.362;12.152;2023-04-03T02:05:44;4.80;;;0.70;;
19301;SDS011;9785;59.362;12.152;2023-04-03T02:08:14;0.60;;;0.60;;
19301;SDS011;9785;59.362;12.152;2023-04-03T02:10:47;0.60;;;0.50;;
19301;SDS011;9785;59.362;12.152;2023-04-03T02:13:18;0.87;;;0.80;;
19301;SDS011;9785;59.362;12.152;2023-04-03T02:15:47;1.17;;;0.50;;
19301;SDS011;9785;59.362;12.152;2023-04-03T02:18:16;0.47;;;0.47;;
19301;SDS011;9785;59.362;12.152;2023-04-03T02:20:50;0.90;;;0.50;;
19301;SDS011;9785;59.362;12.152;2023-04-03T02:23:19;1.07;;;0.50;;
19301;SDS011;9785;59.362;12.152;2023-04-03T02:25:48;2.30;;;0.60;;
19301;SDS011;9785;59.362;12.152;2023-04-03T02:28:17;1.70;;;0.70;;
19301;SDS011;9785;59.362;12.152;2023-04-03T02:30:47;0.57;;;0.57;;
19301;SDS011;9785;59.362;12.152;2023-04-03T02:33:16;0.77;;;0.67;;
19301;SDS011;9785;59.362;12.152;2023-04-03T02:35:48;1.27;;;0.70;;
19301;SDS011;9785;59.362;12.152;2023-04-03T02:38:22;1.90;;;0.40;;
19301;SDS011;9785;59.362;12.152;2023-04-03T02:40:52;0.80;;;0.57;;
19301;SDS011;9785;59.362;12.152;2023-04-03T02:43:22;1.90;;;0.87;;
19301;SDS011;9785;59.362;12.152;2023-04-03T02:45:52;0.77;;;0.77;;
19301;SDS011;9785;59.362;12.152;2023-04-03T02:48:23;0.93;;;0.40;;
19301;SDS011;9785;59.362;12.152;2023-04-03T02:50:55;0.50;;;0.50;;
19301;SDS011;9785;59.362;12.152;2023-04-03T02:53:24;0.37;;;0.37;;
19301;SDS011;9785;59.362;12.152;2023-04-03T02:55:53;1.40;;;0.60;;
19301;SDS011;9785;59.362;12.152;2023-04-03T02:58:22;0.77;;;0.43;;
19301;SDS011;9785;59.362;12.152;2023-04-03T03:00:51;0.50;;;0.50;;
19301;SDS011;9785;59.362;12.152;2023-04-03T03:03:20;0.70;;;0.50;;
19301;SDS011;9785;59.362;12.152;2023-04-03T03:05:50;0.60;;;0.40;;
19301;SDS011;9785;59.362;12.152;2023-04-03T03:08:30;1.60;;;0.60;;
19301;SDS011;9785;59.362;12.152;2023-04-03T03:11:00;0.33;;;0.33;;
19301;SDS011;9785;59.362;12.152;2023-04-03T03:13:29;1.83;;;0.60;;
19301;SDS011;9785;59.362;12.152;2023-04-03T03:15:59;0.70;;;0.70;;
19301;SDS011;9785;59.362;12.152;2023-04-03T03:18:30;2.07;;;0.60;;
19301;SDS011;9785;59.362;12.152;2023-04-03T03:21:00;1.63;;;0.77;;
19301;SDS011;9785;59.362;12.152;2023-04-03T03:23:31;0.87;;;0.43;;
19301;SDS011;9785;59.362;12.152;2023-04-03T03:26:02;0.60;;;0.60;;
19301;SDS011;9785;59.362;12.152;2023-04-03T03:28:32;1.50;;;0.60;;
19301;SDS011;9785;59.362;12.152;2023-04-03T03:31:01;3.70;;;0.77;;
19301;SDS011;9785;59.362;12.152;2023-04-03T03:33:31;0.63;;;0.40;;
19301;SDS011;9785;59.362;12.152;2023-04-03T03:36:01;3.07;;;0.70;;
19301;SDS011;9785;59.362;12.152;2023-04-03T03:38:31;5.77;;;0.70;;
19301;SDS011;9785;59.362;12.152;2023-04-03T03:41:01;1.07;;;0.60;;
19301;SDS011;9785;59.362;12.152;2023-04-03T03:43:30;0.73;;;0.40;;
19301;SDS011;9785;59.362;12.152;2023-04-03T03:46:00;3.10;;;0.60;;
19301;SDS011;9785;59.362;12.152;2023-04-03T03:48:29;3.73;;;0.53;;
19301;SDS011;9785;59.362;12.152;2023-04-03T03:50:58;0.77;;;0.50;;
19301;SDS011;9785;59.362;12.152;2023-04-03T03:53:29;0.40;;;0.40;;
19301;SDS011;9785;59.362;12.152;2023-04-03T03:56:01;3.33;;;0.80;;
19301;SDS011;9785;59.362;12.152;2023-04-03T03:58:32;1.53;;;0.80;;
19301;SDS011;9785;59.362;12.152;2023-04-03T04:01:04;7.47;;;3.07;;
19301;SDS011;9785;59.362;12.152;2023-04-03T04:03:33;14.13;;;4.57;;
19301;SDS011;9785;59.362;12.152;2023-04-03T04:06:04;2.53;;;1.40;;
19301;SDS011;9785;59.362;12.152;2023-04-03T04:08:34;1.40;;;0.77;;
19301;SDS011;9785;59.362;12.152;2023-04-03T04:11:05;3.63;;;1.93;;
19301;SDS011;9785;59.362;12.152;2023-04-03T04:13:34;4.50;;;1.90;;
19301;SDS011;9785;59.362;12.152;2023-04-03T04:16:04;1.67;;;1.20;;
19301;SDS011;9785;59.362;12.152;2023-04-03T04:18:33;1.47;;;0.63;;
19301;SDS011;9785;59.362;12.152;2023-04-03T04:21:03;2.53;;;0.80;;
19301;SDS011;9785;59.362;12.152;2023-04-03T04:23:32;2.83;;;0.60;;
19301;SDS011;9785;59.362;12.152;2023-04-03T04:26:01;0.50;;;0.50;;
19301;SDS011;9785;59.362;12.152;2023-04-03T04:28:32;0.87;;;0.53;;
19301;SDS011;9785;59.362;12.152;2023-04-03T04:31:01;0.80;;;0.70;;
19301;SDS011;9785;59.362;12.152;2023-04-03T04:33:31;6.87;;;1.07;;
19301;SDS011;9785;59.362;12.152;2023-04-03T04:36:00;4.60;;;1.30;;
19301;SDS011;9785;59.362;12.152;2023-04-03T04:38:31;1.40;;;1.00;;
19301;SDS011;9785;59.362;12.152;2023-04-03T04:41:01;4.07;;;1.30;;
19301;SDS011;9785;59.362;12.152;2023-04-03T04:43:30;2.13;;;1.20;;
19301;SDS011;9785;59.362;12.152;2023-04-03T04:46:02;5.40;;;0.90;;
19301;SDS011;9785;59.362;12.152;2023-04-03T04:48:33;2.53;;;1.37;;
19301;SDS011;9785;59.362;12.152;2023-04-03T04:51:04;5.30;;;1.47;;
19301;SDS011;9785;59.362;12.152;2023-04-03T04:53:33;5.63;;;0.87;;
19301;SDS011;9785;59.362;12.152;2023-04-03T04:56:03;2.07;;;0.67;;
19301;SDS011;9785;59.362;12.152;2023-04-03T04:58:33;0.93;;;0.50;;
19301;SDS011;9785;59.362;12.152;2023-04-03T05:01:05;2.57;;;0.70;;
19301;SDS011;9785;59.362;12.152;2023-04-03T05:03:35;0.73;;;0.40;;
19301;SDS011;9785;59.362;12.152;2023-04-03T05:06:05;4.37;;;0.60;;
19301;SDS011;9785;59.362;12.152;2023-04-03T05:08:35;3.07;;;0.90;;
19301;SDS011;9785;59.362;12.152;2023-04-03T05:11:04;1.60;;;0.70;;
19301;SDS011;9785;59.362;12.152;2023-04-03T05:13:34;2.53;;;0.60;;
19301;SDS011;9785;59.362;12.152;2023-04-03T05:16:05;1.20;;;0.50;;
19301;SDS011;9785;59.362;12.152;2023-04-03T05:18:34;9.00;;;1.10;;
19301;SDS011;9785;59.362;12.152;2023-04-03T05:21:04;1.73;;;0.50;;
19301;SDS011;9785;59.362;12.152;2023-04-03T05:23:33;4.30;;;0.80;;
19301;SDS011;9785;59.362;12.152;2023-04-03T05:26:04;1.90;;;0.63;;
19301;SDS011;9785;59.362;12.152;2023-04-03T05:28:34;1.33;;;0.67;;
19301;SDS011;9785;59.362;12.152;2023-04-03T05:31:06;2.83;;;0.70;;
19301;SDS011;9785;59.362;12.152;2023-04-03T05:33:36;2.40;;;0.77;;
19301;SDS011;9785;59.362;12.152;2023-04-03T05:36:07;4.10;;;0.70;;
19301;SDS011;9785;59.362;12.152;2023-04-03T05:38:37;5.07;;;0.80;;
19301;SDS011;9785;59.362;12.152;2023-04-03T05:41:07;12.57;;;0.90;;
19301;SDS011;9785;59.362;12.152;2023-04-03T05:43:36;0.77;;;0.43;;
19301;SDS011;9785;59.362;12.152;2023-04-03T05:46:09;3.50;;;0.73;;
19301;SDS011;9785;59.362;12.152;2023-04-03T05:48:40;2.87;;;0.40;;
19301;SDS011;9785;59.362;12.152;2023-04-03T05:51:13;0.43;;;0.43;;
19301;SDS011;9785;59.362;12.152;2023-04-03T05:53:44;3.90;;;0.70;;
19301;SDS011;9785;59.362;12.152;2023-04-03T05:56:15;1.03;;;0.40;;
19301;SDS011;9785;59.362;12.152;2023-04-03T05:58:45;0.57;;;0.40;;
19301;SDS011;9785;59.362;12.152;2023-04-03T06:01:16;1.37;;;0.80;;
19301;SDS011;9785;59.362;12.152;2023-04-03T06:03:47;0.40;;;0.33;;
19301;SDS011;9785;59.362;12.152;2023-04-03T06:06:16;2.67;;;0.67;;
19301;SDS011;9785;59.362;12.152;2023-04-03T06:08:47;0.93;;;0.60;;
19301;SDS011;9785;59.362;12.152;2023-04-03T06:11:18;5.03;;;0.60;;
19301;SDS011;9785;59.362;12.152;2023-04-03T06:13:48;2.20;;;0.60;;
19301;SDS011;9785;59.362;12.152;2023-04-03T06:16:19;0.90;;;0.80;;
19301;SDS011;9785;59.362;12.152;2023-04-03T06:18:49;0.70;;;0.70;;
19301;SDS011;9785;59.362;12.152;2023-04-03T06:21:18;1.07;;;0.60;;
19301;SDS011;9785;59.362;12.152;2023-04-03T06:23:48;1.80;;;0.60;;
19301;SDS011;9785;59.362;12.152;2023-04-03T06:26:19;2.83;;;0.63;;
19301;SDS011;9785;59.362;12.152;2023-04-03T06:28:49;1.07;;;0.60;;
19301;SDS011;9785;59.362;12.152;2023-04-03T06:31:20;2.33;;;0.60;;
19301;SDS011;9785;59.362;12.152;2023-04-03T06:33:50;1.07;;;0.50;;
19301;SDS011;9785;59.362;12.152;2023-04-03T06:36:20;1.83;;;0.50;;
19301;SDS011;9785;59.362;12.152;2023-04-03T06:38:49;1.20;;;0.73;;
19301;SDS011;9785;59.362;12.152;2023-04-03T06:41:20;0.40;;;0.40;;
19301;SDS011;9785;59.362;12.152;2023-04-03T06:43:49;0.80;;;0.40;;
19301;SDS011;9785;59.362;12.152;2023-04-03T06:46:21;0.53;;;0.53;;
19301;SDS011;9785;59.362;12.152;2023-04-03T06:48:53;0.97;;;0.53;;
19301;SDS011;9785;59.362;12.152;2023-04-03T06:51:23;2.17;;;0.80;;
19301;SDS011;9785;59.362;12.152;2023-04-03T06:53:54;1.07;;;0.70;;
19301;SDS011;9785;59.362;12.152;2023-04-03T06:56:26;0.90;;;0.60;;
19301;SDS011;9785;59.362;12.152;2023-04-03T06:58:55;0.50;;;0.47;;
19301;SDS011;9785;59.362;12.152;2023-04-03T07:01:31;0.50;;;0.50;;
19301;SDS011;9785;59.362;12.152;2023-04-03T07:04:00;0.50;;;0.50;;
19301;SDS011;9785;59.362;12.152;2023-04-03T07:06:29;0.50;;;0.40;;
19301;SDS011;9785;59.362;12.152;2023-04-03T07:09:00;2.23;;;0.70;;
19301;SDS011;9785;59.362;12.152;2023-04-03T07:11:30;3.70;;;0.47;;
19301;SDS011;9785;59.362;12.152;2023-04-03T07:14:00;1.30;;;0.53;;
19301;SDS011;9785;59.362;12.152;2023-04-03T07:16:31;0.60;;;0.60;;
19301;SDS011;9785;59.362;12.152;2023-04-03T07:19:01;3.27;;;0.53;;
19301;SDS011;9785;59.362;12.152;2023-04-03T07:21:30;0.70;;;0.50;;
19301;SDS011;9785;59.362;12.152;2023-04-03T07:24:00;0.53;;;0.30;;
19301;SDS011;9785;59.362;12.152;2023-04-03T07:26:29;0.93;;;0.40;;
19301;SDS011;9785;59.362;12.152;2023-04-03T07:28:58;2.40;;;0.50;;
19301;SDS011;9785;59.362;12.152;2023-04-03T07:31:27;1.23;;;0.47;;
19301;SDS011;9785;59.362;12.152;2023-04-03T07:33:58;1.67;;;0.60;;
19301;SDS011;9785;59.362;12.152;2023-04-03T07:36:27;1.40;;;0.50;;
19301;SDS011;9785;59.362;12.152;2023-04-03T07:39:00;0.53;;;0.53;;
19301;SDS011;9785;59.362;12.152;2023-04-03T07:41:29;1.00;;;0.57;;
19301;SDS011;9785;59.362;12.152;2023-04-03T07:44:00;1.50;;;0.40;;
19301;SDS011;9785;59.362;12.152;2023-04-03T07:46:29;0.33;;;0.33;;
19301;SDS011;9785;59.362;12.152;2023-04-03T07:49:00;0.43;;;0.43;;
19301;SDS011;9785;59.362;12.152;2023-04-03T07:51:29;0.73;;;0.40;;
19301;SDS011;9785;59.362;12.152;2023-04-03T07:53:59;1.07;;;0.43;;
19301;SDS011;9785;59.362;12.152;2023-04-03T07:56:28;1.33;;;0.50;;
19301;SDS011;9785;59.362;12.152;2023-04-03T07:58:57;0.60;;;0.50;;
19301;SDS011;9785;59.362;12.152;2023-04-03T08:01:27;0.93;;;0.50;;
19301;SDS011;9785;59.362;12.152;2023-04-03T08:04:00;1.87;;;0.53;;
19301;SDS011;9785;59.362;12.152;2023-04-03T08:06:30;1.20;;;0.33;;
19301;SDS011;9785;59.362;12.152;2023-04-03T08:09:12;2.00;;;0.60;;
19301;SDS011;9785;59.362;12.152;2023-04-03T08:11:42;0.90;;;0.40;;
19301;SDS011;9785;59.362;12.152;2023-04-03T08:14:12;0.77;;;0.40;;
19301;SDS011;9785;59.362;12.152;2023-04-03T08:16:44;1.27;;;0.53;;
19301;SDS011;9785;59.362;12.152;2023-04-03T08:19:15;0.20;;;0.20;;
19301;SDS011;9785;59.362;12.152;2023-04-03T08:21:53;0.40;;;0.40;;
19301;SDS011;9785;59.362;12.152;2023-04-03T08:24:23;1.57;;;0.33;;
19301;SDS011;9785;59.362;12.152;2023-04-03T08:26:55;0.90;;;0.43;;
19301;SDS011;9785;59.362;12.152;2023-04-03T08:29:24;0.57;;;0.40;;
19301;SDS011;9785;59.362;12.152;2023-04-03T08:31:54;2.87;;;0.50;;
19301;SDS011;9785;59.362;12.152;2023-04-03T08:34:25;1.50;;;0.30;;
19301;SDS011;9785;59.362;12.152;2023-04-03T08:36:54;1.65;;;0.30;;
19301;SDS011;9785;59.362;12.152;2023-04-03T08:39:23;1.10;;;0.40;;
19301;SDS011;9785;59.362;12.152;2023-04-03T08:41:52;0.40;;;0.30;;
19301;SDS011;9785;59.362;12.152;2023-04-03T08:44:24;1.10;;;0.50;;
19301;SDS011;9785;59.362;12.152;2023-04-03T08:47:04;4.90;;;0.50;;
19301;SDS011;9785;59.362;12.152;2023-04-03T08:49:42;0.87;;;0.37;;
19301;SDS011;9785;59.362;12.152;2023-04-03T08:52:16;0.40;;;0.40;;
19301;SDS011;9785;59.362;12.152;2023-04-03T08:54:49;0.93;;;0.27;;
19301;SDS011;9785;59.362;12.152;2023-04-03T08:57:20;0.43;;;0.40;;
19301;SDS011;9785;59.362;12.152;2023-04-03T08:59:53;1.30;;;0.50;;
19301;SDS011;9785;59.362;12.152;2023-04-03T09:02:24;0.30;;;0.30;;
19301;SDS011;9785;59.362;12.152;2023-04-03T09:04:55;0.40;;;0.40;;
19301;SDS011;9785;59.362;12.152;2023-04-03T09:07:29;0.40;;;0.40;;
19301;SDS011;9785;59.362;12.152;2023-04-03T09:10:01;3.70;;;0.60;;
19301;SDS011;9785;59.362;12.152;2023-04-03T09:12:32;0.40;;;0.40;;
19301;SDS011;9785;59.362;12.152;2023-04-03T09:15:05;1.07;;;0.50;;
19301;SDS011;9785;59.362;12.152;2023-04-03T09:17:38;0.70;;;0.30;;
19301;SDS011;9785;59.362;12.152;2023-04-03T09:20:14;0.57;;;0.40;;
19301;SDS011;9785;59.362;12.152;2023-04-03T09:22:47;1.70;;;0.30;;
19301;SDS011;9785;59.362;12.152;2023-04-03T09:25:20;2.80;;;0.50;;
19301;SDS011;9785;59.362;12.152;2023-04-03T09:27:50;1.63;;;0.63;;
19301;SDS011;9785;59.362;12.152;2023-04-03T09:30:21;0.83;;;0.50;;
19301;SDS011;9785;59.362;12.152;2023-04-03T09:32:52;1.20;;;0.50;;
19301;SDS011;9785;59.362;12.152;2023-04-03T09:35:24;0.60;;;0.30;;
19301;SDS011;9785;59.362;12.152;2023-04-03T09:38:16;2.13;;;0.40;;
19301;SDS011;9785;59.362;12.152;2023-04-03T09:40:47;1.33;;;0.50;;
19301;SDS011;9785;59.362;12.152;2023-04-03T09:43:19;0.63;;;0.30;;
19301;SDS011;9785;59.362;12.152;2023-04-03T09:45:50;0.67;;;0.30;;
19301;SDS011;9785;59.362;12.152;2023-04-03T09:48:20;0.63;;;0.57;;
19301;SDS011;9785;59.362;12.152;2023-04-03T09:50:56;0.40;;;0.40;;
19301;SDS011;9785;59.362;12.152;2023-04-03T09:53:28;0.40;;;0.40;;
19301;SDS011;9785;59.362;12.152;2023-04-03T09:55:58;1.50;;;0.47;;
19301;SDS011;9785;59.362;12.152;2023-04-03T09:58:29;0.70;;;0.53;;
19301;SDS011;9785;59.362;12.152;2023-04-03T10:01:20;0.97;;;0.47;;
19301;SDS011;9785;59.362;12.152;2023-04-03T10:04:02;0.50;;;0.47;;
19301;SDS011;9785;59.362;12.152;2023-04-03T10:06:35;1.40;;;0.40;;
19301;SDS011;9785;59.362;12.152;2023-04-03T10:09:05;1.37;;;0.47;;
19301;SDS011;9785;59.362;12.152;2023-04-03T10:11:36;1.73;;;0.47;;
19301;SDS011;9785;59.362;12.152;2023-04-03T10:14:10;1.43;;;0.40;;
19301;SDS011;9785;59.362;12.152;2023-04-03T10:16:46;0.30;;;0.30;;
19301;SDS011;9785;59.362;12.152;2023-04-03T10:19:24;0.60;;;0.43;;
19301;SDS011;9785;59.362;12.152;2023-04-03T10:22:02;1.43;;;0.40;;
19301;SDS011;9785;59.362;12.152;2023-04-03T10:24:36;1.77;;;0.70;;
19301;SDS011;9785;59.362;12.152;2023-04-03T10:27:10;0.40;;;0.40;;
19301;SDS011;9785;59.362;12.152;2023-04-03T10:29:42;0.37;;;0.37;;
19301;SDS011;9785;59.362;12.152;2023-04-03T10:32:24;2.33;;;0.53;;
19301;SDS011;9785;59.362;12.152;2023-04-03T10:34:56;2.03;;;0.67;;
19301;SDS011;9785;59.362;12.152;2023-04-03T10:37:34;1.33;;;0.47;;
19301;SDS011;9785;59.362;12.152;2023-04-03T10:40:05;2.60;;;0.50;;
19301;SDS011;9785;59.362;12.152;2023-04-03T10:42:41;1.20;;;0.60;;
19301;SDS011;9785;59.362;12.152;2023-04-03T10:45:17;1.83;;;0.40;;
19301;SDS011;9785;59.362;12.152;2023-04-03T10:47:50;0.97;;;0.50;;
19301;SDS011;9785;59.362;12.152;2023-04-03T10:50:25;0.40;;;0.40;;
19301;SDS011;9785;59.362;12.152;2023-04-03T10:53:00;0.30;;;0.30;;
19301;SDS011;9785;59.362;12.152;2023-04-03T10:55:32;1.03;;;0.50;;
19301;SDS011;9785;59.362;12.152;2023-04-03T10:58:04;2.73;;;0.50;;
19301;SDS011;9785;59.362;12.152;2023-04-03T11:00:35;0.97;;;0.50;;
19301;SDS011;9785;59.362;12.152;2023-04-03T11:03:06;1.37;;;0.40;;
19301;SDS011;9785;59.362;12.152;2023-04-03T11:05:40;1.80;;;0.70;;
19301;SDS011;9785;59.362;12.152;2023-04-03T11:08:17;1.27;;;0.50;;
19301;SDS011;9785;59.362;12.152;2023-04-03T11:10:50;1.20;;;0.40;;
19301;SDS011;9785;59.362;12.152;2023-04-03T11:13:22;2.20;;;0.50;;
19301;SDS011;9785;59.362;12.152;2023-04-03T11:15:55;2.50;;;0.47;;
19301;SDS011;9785;59.362;12.152;2023-04-03T11:18:26;1.13;;;0.50;;
19301;SDS011;9785;59.362;12.152;2023-04-03T11:20:57;1.17;;;0.30;;
19301;SDS011;9785;59.362;12.152;2023-04-03T11:23:31;1.37;;;0.30;;
19301;SDS011;9785;59.362;12.152;2023-04-03T11:26:15;1.43;;;0.57;;
19301;SDS011;9785;59.362;12.152;2023-04-03T11:28:51;1.50;;;0.30;;
19301;SDS011;9785;59.362;12.152;2023-04-03T11:31:30;1.20;;;0.40;;
19301;SDS011;9785;59.362;12.152;2023-04-03T11:34:10;1.77;;;0.47;;
19301;SDS011;9785;59.362;12.152;2023-04-03T11:36:44;1.90;;;0.40;;
19301;SDS011;9785;59.362;12.152;2023-04-03T11:39:18;0.77;;;0.40;;
19301;SDS011;9785;59.362;12.152;2023-04-03T11:41:49;1.33;;;0.50;;
19301;SDS011;9785;59.362;12.152;2023-04-03T11:44:34;0.93;;;0.80;;
19301;SDS011;9785;59.362;12.152;2023-04-03T11:47:05;0.40;;;0.40;;
19301;SDS011;9785;59.362;12.152;2023-04-03T11:49:55;0.60;;;0.47;;
19301;SDS011;9785;59.362;12.152;2023-04-03T11:58:16;1.70;;;0.53;;
19301;SDS011;9785;59.362;12.152;2023-04-03T12:00:49;0.97;;;0.33;;
19301;SDS011;9785;59.362;12.152;2023-04-03T12:03:33;0.40;;;0.40;;
19301;SDS011;9785;59.362;12.152;2023-04-03T12:08:51;0.63;;;0.47;;
19301;SDS011;9785;59.362;12.152;2023-04-03T12:11:23;1.23;;;0.37;;
19301;SDS011;9785;59.362;12.152;2023-04-03T12:14:12;0.77;;;0.30;;
19301;SDS011;9785;59.362;12.152;2023-04-03T12:16:43;1.23;;;0.50;;
19301;SDS011;9785;59.362;12.152;2023-04-03T12:19:30;0.20;;;0.20;;
19301;SDS011;9785;59.362;12.152;2023-04-03T12:22:09;0.30;;;0.30;;
19301;SDS011;9785;59.362;12.152;2023-04-03T12:24:40;0.50;;;0.40;;
19301;SDS011;9785;59.362;12.152;2023-04-03T12:27:14;0.40;;;0.30;;
19301;SDS011;9785;59.362;12.152;2023-04-03T12:29:50;0.70;;;0.43;;
19301;SDS011;9785;59.362;12.152;2023-04-03T12:32:24;0.80;;;0.40;;
19301;SDS011;9785;59.362;12.152;2023-04-03T12:34:58;0.40;;;0.40;;
19301;SDS011;9785;59.362;12.152;2023-04-03T12:37:38;0.30;;;0.30;;
19301;SDS011;9785;59.362;12.152;2023-04-03T12:40:09;1.03;;;0.40;;
19301;SDS011;9785;59.362;12.152;2023-04-03T12:42:47;1.50;;;0.50;;
19301;SDS011;9785;59.362;12.152;2023-04-03T12:45:25;0.40;;;0.40;;
19301;SDS011;9785;59.362;12.152;2023-04-03T12:47:55;0.50;;;0.50;;
19301;SDS011;9785;59.362;12.152;2023-04-03T12:50:27;1.10;;;0.40;;
19301;SDS011;9785;59.362;12.152;2023-04-03T12:52:58;1.37;;;0.43;;
19301;SDS011;9785;59.362;12.152;2023-04-03T12:55:29;0.40;;;0.40;;
19301;SDS011;9785;59.362;12.152;2023-04-03T12:58:12;0.50;;;0.50;;
19301;SDS011;9785;59.362;12.152;2023-04-03T13:00:44;0.73;;;0.47;;
19301;SDS011;9785;59.362;12.152;2023-04-03T13:03:21;1.30;;;0.37;;
19301;SDS011;9785;59.362;12.152;2023-04-03T13:05:51;0.40;;;0.30;;
19301;SDS011;9785;59.362;12.152;2023-04-03T13:08:21;0.77;;;0.60;;
19301;SDS011;9785;59.362;12.152;2023-04-03T13:10:54;1.10;;;0.30;;
19301;SDS011;9785;59.362;12.152;2023-04-03T13:13:25;0.40;;;0.40;;
19301;SDS011;9785;59.362;12.152;2023-04-03T13:15:55;0.83;;;0.60;;
19301;SDS011;9785;59.362;12.152;2023-04-03T13:18:29;0.40;;;0.40;;
19301;SDS011;9785;59.362;12.152;2023-04-03T13:21:01;0.47;;;0.47;;
19301;SDS011;9785;59.362;12.152;2023-04-03T13:23:34;0.50;;;0.40;;
19301;SDS011;9785;59.362;12.152;2023-04-03T13:26:04;0.60;;;0.50;;
19301;SDS011;9785;59.362;12.152;2023-04-03T13:28:34;3.07;;;0.60;;
19301;SDS011;9785;59.362;12.152;2023-04-03T13:31:07;0.90;;;0.20;;
19301;SDS011;9785;59.362;12.152;2023-04-03T13:33:39;1.40;;;0.70;;
19301;SDS011;9785;59.362;12.152;2023-04-03T13:36:16;0.70;;;0.40;;
19301;SDS011;9785;59.362;12.152;2023-04-03T13:38:46;0.50;;;0.50;;
19301;SDS011;9785;59.362;12.152;2023-04-03T13:41:28;0.50;;;0.50;;
19301;SDS011;9785;59.362;12.152;2023-04-03T13:46:43;0.67;;;0.50;;
19301;SDS011;9785;59.362;12.152;2023-04-03T13:49:22;0.33;;;0.33;;
19301;SDS011;9785;59.362;12.152;2023-04-03T13:51:53;1.50;;;0.60;;
19301;SDS011;9785;59.362;12.152;2023-04-03T13:54:34;0.77;;;0.50;;
19301;SDS011;9785;59.362;12.152;2023-04-03T13:57:10;0.93;;;0.40;;
19301;SDS011;9785;59.362;12.152;2023-04-03T13:59:40;1.90;;;0.40;;
19301;SDS011;9785;59.362;12.152;2023-04-03T14:02:16;1.43;;;0.67;;
19301;SDS011;9785;59.362;12.152;2023-04-03T14:04:50;1.30;;;0.40;;
19301;SDS011;9785;59.362;12.152;2023-04-03T14:07:23;0.63;;;0.50;;
19301;SDS011;9785;59.362;12.152;2023-04-03T14:09:54;1.87;;;0.47;;
19301;SDS011;9785;59.362;12.152;2023-04-03T14:12:24;1.47;;;0.47;;
19301;SDS011;9785;59.362;12.152;2023-04-03T14:14:57;1.03;;;0.43;;
19301;SDS011;9785;59.362;12.152;2023-04-03T14:17:30;4.63;;;0.50;;
19301;SDS011;9785;59.362;12.152;2023-04-03T14:20:00;1.80;;;0.53;;
19301;SDS011;9785;59.362;12.152;2023-04-03T14:22:30;0.87;;;0.50;;
19301;SDS011;9785;59.362;12.152;2023-04-03T14:25:02;0.53;;;0.40;;
19301;SDS011;9785;59.362;12.152;2023-04-03T14:27:34;0.50;;;0.50;;
19301;SDS011;9785;59.362;12.152;2023-04-03T14:30:05;0.80;;;0.40;;
19301;SDS011;9785;59.362;12.152;2023-04-03T14:32:36;0.90;;;0.60;;
19301;SDS011;9785;59.362;12.152;2023-04-03T14:35:07;0.40;;;0.40;;
19301;SDS011;9785;59.362;12.152;2023-04-03T14:37:36;3.70;;;0.67;;
19301;SDS011;9785;59.362;12.152;2023-04-03T14:40:07;0.30;;;0.30;;
19301;SDS011;9785;59.362;12.152;2023-04-03T14:42:38;0.63;;;0.60;;
19301;SDS011;9785;59.362;12.152;2023-04-03T14:45:08;0.93;;;0.30;;
19301;SDS011;9785;59.362;12.152;2023-04-03T14:47:42;0.80;;;0.50;;
19301;SDS011;9785;59.362;12.152;2023-04-03T14:50:16;0.37;;;0.37;;
19301;SDS011;9785;59.362;12.152;2023-04-03T14:52:50;3.87;;;0.47;;
19301;SDS011;9785;59.362;12.152;2023-04-03T14:55:23;0.73;;;0.47;;
19301;SDS011;9785;59.362;12.152;2023-04-03T14:57:53;0.80;;;0.60;;
19301;SDS011;9785;59.362;12.152;2023-04-03T15:00:24;0.30;;;0.30;;
19301;SDS011;9785;59.362;12.152;2023-04-03T15:02:54;0.33;;;0.33;;
19301;SDS011;9785;59.362;12.152;2023-04-03T15:05:25;1.43;;;0.63;;
19301;SDS011;9785;59.362;12.152;2023-04-03T15:07:55;1.13;;;0.40;;
19301;SDS011;9785;59.362;12.152;2023-04-03T15:10:25;0.30;;;0.30;;
19301;SDS011;9785;59.362;12.152;2023-04-03T15:12:56;1.80;;;0.40;;
19301;SDS011;9785;59.362;12.152;2023-04-03T15:15:27;1.10;;;0.40;;
19301;SDS011;9785;59.362;12.152;2023-04-03T15:17:59;1.37;;;0.47;;
19301;SDS011;9785;59.362;12.152;2023-04-03T15:20:30;0.30;;;0.30;;
19301;SDS011;9785;59.362;12.152;2023-04-03T15:23:00;0.60;;;0.60;;
19301;SDS011;9785;59.362;12.152;2023-04-03T15:25:31;0.70;;;0.50;;
19301;SDS011;9785;59.362;12.152;2023-04-03T15:28:02;0.50;;;0.50;;
19301;SDS011;9785;59.362;12.152;2023-04-03T15:30:40;0.37;;;0.37;;
19301;SDS011;9785;59.362;12.152;2023-04-03T15:33:13;0.40;;;0.40;;